首页
METAR-TAF:

METAR-TAF

机场 :

Pellston Regional Airport of Emmet County

Pellston, 密歇根州, 美国

纬度: 45-34-15N, 经度: 084-47-48W, 海拔: 220米

当前天气观测

该预报发布于2小时和54分钟前的19:54 UTC
风速12节,风向西,有时为23节阵风
温度 26°C
湿度 48%
气压 1016 hPa
能見度: 16.1公里
天空无云

METAR: KPLN 261954Z AUTO 26012G23KT 10SM CLR 26/14 A3000 RMK AO2 SLP156 T02560139

时间: 18:48 (22:48 UTC)

预报

该预报发布于5小时和28分钟前的17:20 UTC
预报有效从26日的 18点(UTC)到 27日的 18点(UTC)
风速11节,风向西转西南,有时为20节阵风
能見度: 10公里
散云层高于25000英尺
从 27日的 0200点(UTC)
风速3节,风向多变
能見度: 10公里
散云层高于25000英尺
从 27日的 1500点(UTC)
风速7节,风向南转西南
能見度: 10公里
多云层高于20000英尺

TAF: KPLN 261720Z 2618/2718 25011G20KT P6SM SCT250 FM270200 VRB03KT P6SM SCT250 FM271500 21007KT P6SM BKN200

超过4000个机场的气象观测和天气预报(METAR&TAF报告)。

可查询的气象台以黄色和红色小点在地图上表示。

将鼠标移到小点上方,可查看气象台名称。

然后点击查看天气观测和预报。

如需切换地图:点击带黑十字的绿色按钮放大地图;点击带横线的绿色按钮缩小地图;或者点击绿色箭头查看邻近地区的地图。


METAR-TAF: